Time;durP1;ratioP1;P1;durP2;ratioP2;P2;SDS_P1;SDS_P2;PMS_P1;PMS_P2;Temp;Humidity;BMP_temperature;BMP_pressure;BME280_temperature;BME280_humidity;BME280_pressure;Samples;Min_cycle;Max_cycle;Signal;HPM_P1;HPM_P2
2022/05/06 00:01:00;;;;;;;12.02;4.07;;;;;;;7.54;31.15;100304.63;5131401;28;20043;-73
2022/05/06 00:03:26;;;;;;;11.38;4.22;;;;;;;7.50;31.41;100304.31;5130915;27;20051;-72
2022/05/06 00:05:53;;;;;;;11.88;4.30;;;;;;;7.49;31.37;100297.22;5096748;28;20044;-74
2022/05/06 00:08:19;;;;;;;13.85;4.05;;;;;;;7.50;31.35;100296.13;5096416;27;20051;-73
2022/05/06 00:10:46;;;;;;;9.90;3.83;;;;;;;7.47;31.48;100293.88;5146581;27;20046;-74
2022/05/06 00:13:12;;;;;;;11.75;3.80;;;;;;;7.51;31.42;100294.22;5110641;27;20590;-74
2022/05/06 00:15:38;;;;;;;15.25;4.13;;;;;;;7.36;31.78;100289.31;5095783;28;20578;-73
2022/05/06 00:18:05;;;;;;;9.80;3.60;;;;;;;7.40;31.46;100297.81;5130218;27;20596;-73
2022/05/06 00:20:31;;;;;;;13.15;4.03;;;;;;;7.42;31.62;100301.13;5093967;28;20134;-74
2022/05/06 00:22:58;;;;;;;23.38;5.63;;;;;;;7.38;31.82;100300.78;5095689;27;20092;-73
2022/05/06 00:25:24;;;;;;;13.68;4.53;;;;;;;7.32;31.84;100304.44;5109483;28;20048;-74
2022/05/06 00:27:51;;;;;;;15.77;4.93;;;;;;;7.24;32.14;100305.66;5130515;28;20078;-73
2022/05/06 00:30:17;;;;;;;12.40;4.25;;;;;;;7.18;32.08;100307.47;5114207;28;20585;-74
2022/05/06 00:32:44;;;;;;;9.80;3.90;;;;;;;7.30;31.94;100302.00;5131665;28;20050;-73
2022/05/06 00:35:10;;;;;;;11.40;4.15;;;;;;;7.16;32.17;100289.72;5094435;28;20058;-73
2022/05/06 00:37:37;;;;;;;11.68;4.10;;;;;;;7.24;32.12;100317.38;5110514;28;20051;-74
2022/05/06 00:40:04;;;;;;;12.00;4.57;;;;;;;7.19;32.23;100308.28;5091935;28;20400;-75
2022/05/06 00:42:30;;;;;;;14.55;3.90;;;;;;;7.16;32.20;100306.03;5114196;28;20126;-75
2022/05/06 00:45:01;;;;;;;11.75;3.67;;;;;;;7.16;32.11;100287.00;5110814;28;20046;-75
2022/05/06 00:47:30;;;;;;;20.02;4.70;;;;;;;7.22;32.07;100316.78;5115587;28;20071;-75
2022/05/06 00:49:56;;;;;;;9.95;3.60;;;;;;;7.24;32.03;100309.22;5132448;27;20054;-75
2022/05/06 00:52:23;;;;;;;13.50;3.78;;;;;;;7.26;32.24;100313.59;5112044;28;20057;-75
2022/05/06 00:54:51;;;;;;;15.77;3.97;;;;;;;7.15;32.18;100307.13;5109001;28;20043;-74
2022/05/06 00:57:17;;;;;;;12.77;4.03;;;;;;;7.17;32.20;100307.69;5126403;28;20046;-74
2022/05/06 01:02:31;;;;;;;13.30;3.72;;;;;;;7.24;32.28;100309.22;5092222;28;20043;-77
2022/05/06 01:04:57;;;;;;;15.75;3.92;;;;;;;7.18;32.26;100309.34;5114033;27;20091;-74
2022/05/06 01:07:24;;;;;;;11.00;4.22;;;;;;;7.20;32.17;100308.06;5120729;28;20045;-75
2022/05/06 01:09:51;;;;;;;13.15;4.03;;;;;;;7.13;32.22;100304.63;5112629;28;20043;-75
2022/05/06 01:12:17;;;;;;;17.85;3.55;;;;;;;7.21;32.26;100308.88;5127133;28;20040;-75
2022/05/06 01:14:44;;;;;;;10.77;3.60;;;;;;;7.23;32.59;100312.16;5089753;28;20051;-75
2022/05/06 01:17:24;;;;;;;11.52;4.10;;;;;;;7.18;32.36;100318.34;5127458;27;20039;-76
2022/05/06 01:19:50;;;;;;;17.08;3.90;;;;;;;7.17;32.34;100318.56;5127169;27;20054;-74
2022/05/06 01:22:18;;;;;;;9.18;3.45;;;;;;;7.26;32.41;100310.88;5130749;28;20069;-74
2022/05/06 01:24:44;;;;;;;11.07;4.28;;;;;;;7.22;32.21;100303.19;5113473;28;20050;-74
2022/05/06 01:27:17;;;;;;;13.15;3.63;;;;;;;7.20;32.36;100318.09;5110409;28;20133;-74
2022/05/06 01:29:46;;;;;;;12.35;3.53;;;;;;;7.20;32.48;100318.09;5091057;28;20417;-74
2022/05/06 01:32:13;;;;;;;11.00;4.03;;;;;;;7.15;32.49;100302.47;5079641;27;20516;-75
2022/05/06 01:34:41;;;;;;;12.98;3.78;;;;;;;7.20;32.44;100315.38;5099579;28;20055;-74
2022/05/06 01:37:15;;;;;;;11.75;3.80;;;;;;;7.19;32.52;100306.41;5086447;28;20146;-74
2022/05/06 01:39:51;;;;;;;12.32;3.63;;;;;;;7.19;32.76;100319.16;5076027;28;20047;-74
2022/05/06 01:42:22;;;;;;;12.25;3.60;;;;;;;7.13;32.79;100317.41;5111928;28;20049;-74
2022/05/06 01:45:03;;;;;;;9.25;3.45;;;;;;;7.16;32.55;100311.47;5093900;28;20427;-72
2022/05/06 01:47:34;;;;;;;14.15;3.97;;;;;;;7.17;32.63;100313.13;5109983;28;20043;-73
2022/05/06 01:50:06;;;;;;;17.52;3.63;;;;;;;7.24;32.74;100314.66;5094620;28;20446;-72
2022/05/06 01:52:35;;;;;;;10.32;3.67;;;;;;;7.21;32.79;100330.63;5110357;27;20051;-74
2022/05/06 01:55:02;;;;;;;11.55;3.70;;;;;;;7.24;32.62;100322.81;5150843;27;20479;-72
2022/05/06 01:57:36;;;;;;;12.48;3.20;;;;;;;7.10;32.90;100321.41;5101023;28;20047;-75
2022/05/06 02:00:05;;;;;;;17.08;3.40;;;;;;;7.20;32.69;100324.38;5070889;28;20052;-75
2022/05/06 02:02:42;;;;;;;15.10;3.80;;;;;;;7.27;32.57;100328.84;5126115;28;20047;-75
2022/05/06 02:05:19;;;;;;;14.00;3.40;;;;;;;7.17;32.52;100311.22;5112810;28;20391;-71
2022/05/06 02:07:50;;;;;;;10.75;3.28;;;;;;;7.25;32.64;100334.50;5118482;28;20047;-70
2022/05/06 02:10:21;;;;;;;9.35;3.50;;;;;;;7.18;32.72;100321.06;5094906;28;20514;-71
2022/05/06 02:12:51;;;;;;;14.45;3.75;;;;;;;7.30;32.53;100331.91;5092513;28;20052;-70
2022/05/06 02:15:34;;;;;;;12.35;3.40;;;;;;;7.30;32.59;100333.78;5105183;28;20450;-68
2022/05/06 02:18:21;;;;;;;14.10;3.60;;;;;;;7.29;32.28;100326.69;5129218;27;20566;-69
2022/05/06 02:20:54;;;;;;;16.58;4.00;;;;;;;7.25;32.58;100329.06;5113822;28;20113;-68
2022/05/06 02:23:31;;;;;;;12.77;4.07;;;;;;;7.28;32.64;100325.91;5094435;28;20038;-71
2022/05/06 02:26:31;;;;;;;10.82;3.65;;;;;;;7.27;32.76;100315.25;5089869;28;20180;-71
2022/05/06 02:29:02;;;;;;;9.88;4.28;;;;;;;7.23;32.79;100332.03;5118877;27;20046;-71
2022/05/06 02:34:16;;;;;;;11.65;3.60;;;;;;;7.19;32.78;100319.16;5133658;28;20454;-70
2022/05/06 02:36:46;;;;;;;11.38;3.67;;;;;;;7.25;32.82;100353.56;5094970;28;20441;-70
2022/05/06 02:39:19;;;;;;;14.23;3.30;;;;;;;7.31;32.88;100332.72;5134289;27;20053;-70
2022/05/06 02:41:49;;;;;;;12.25;3.70;;;;;;;7.36;32.90;100349.97;5115981;28;20046;-70
2022/05/06 02:44:17;;;;;;;15.85;3.60;;;;;;;7.31;33.02;100346.31;5114055;28;20062;-69
2022/05/06 02:46:45;;;;;;;10.65;3.00;;;;;;;7.36;32.88;100343.75;5112678;28;20603;-69
2022/05/06 02:49:12;;;;;;;16.20;3.30;;;;;;;7.28;33.02;100344.94;5112095;28;20096;-69
2022/05/06 02:51:39;;;;;;;12.27;3.38;;;;;;;7.38;33.00;100347.03;5099001;28;20047;-70
2022/05/06 02:54:07;;;;;;;21.35;3.88;;;;;;;7.43;32.95;100349.84;5097445;28;20055;-70
2022/05/06 02:56:35;;;;;;;15.32;3.40;;;;;;;7.46;32.87;100349.38;5109721;28;20043;-70
2022/05/06 02:59:05;;;;;;;13.57;3.75;;;;;;;7.42;32.93;100347.41;5115641;28;20055;-71
2022/05/06 03:01:34;;;;;;;14.00;3.50;;;;;;;7.45;32.99;100350.44;5114547;28;20560;-70
2022/05/06 03:04:05;;;;;;;18.17;3.67;;;;;;;7.39;33.01;100362.28;5114715;28;20039;-71
2022/05/06 03:06:32;;;;;;;17.15;3.75;;;;;;;7.46;32.91;100354.81;5119225;28;20088;-69
2022/05/06 03:09:00;;;;;;;20.58;3.72;;;;;;;7.50;32.59;100344.28;5110343;28;20050;-71
2022/05/06 03:11:32;;;;;;;12.25;3.70;;;;;;;7.42;32.80;100364.53;5109814;28;20043;-70
2022/05/06 03:14:05;;;;;;;14.88;3.78;;;;;;;7.45;32.72;100368.69;5114772;28;20092;-71
2022/05/06 03:16:40;;;;;;;13.52;3.92;;;;;;;7.48;32.93;100370.91;5111942;28;20074;-71
2022/05/06 03:19:06;;;;;;;19.52;3.45;;;;;;;7.47;32.69;100377.41;5113397;28;20035;-72
2022/05/06 03:21:35;;;;;;;13.95;3.55;;;;;;;7.32;33.30;100372.47;5079384;28;20055;-72
2022/05/06 03:24:01;;;;;;;14.35;3.60;;;;;;;7.40;33.21;100374.81;5075104;28;20043;-74
2022/05/06 03:26:28;;;;;;;11.57;3.90;;;;;;;7.43;33.08;100373.53;5115194;28;20522;-74
2022/05/06 03:28:57;;;;;;;14.07;3.95;;;;;;;7.42;33.32;100367.25;5095753;28;20063;-71
2022/05/06 03:31:25;;;;;;;10.52;3.72;;;;;;;7.49;33.06;100378.84;5094456;28;20141;-72
2022/05/06 03:33:59;;;;;;;13.85;3.70;;;;;;;7.52;32.92;100369.34;5113239;28;20035;-72
2022/05/06 03:36:29;;;;;;;14.57;3.95;;;;;;;7.55;33.14;100376.22;5114172;28;20039;-72
2022/05/06 03:39:04;;;;;;;11.27;3.78;;;;;;;7.51;33.24;100378.59;5113162;28;20511;-73
2022/05/06 03:41:37;;;;;;;14.85;3.50;;;;;;;7.61;33.22;100377.97;5113470;28;21032;-74
2022/05/06 03:44:06;;;;;;;17.42;4.13;;;;;;;7.58;33.38;100373.00;5097730;28;20051;-71
2022/05/06 03:46:47;;;;;;;14.02;4.05;;;;;;;7.44;33.55;100362.38;5114002;28;20521;-71
2022/05/06 03:49:32;;;;;;;12.85;4.10;;;;;;;7.56;33.14;100372.44;5092812;28;20046;-74
2022/05/06 03:52:00;;;;;;;16.60;3.97;;;;;;;7.64;33.35;100380.19;5097445;28;20598;-73
2022/05/06 03:54:27;;;;;;;12.37;4.40;;;;;;;7.74;33.22;100382.31;5094410;28;20075;-73
2022/05/06 03:56:54;;;;;;;15.35;3.92;;;;;;;7.73;33.28;100384.22;5109744;28;20451;-73
2022/05/06 03:59:22;;;;;;;11.02;3.42;;;;;;;7.88;33.09;100385.59;5111553;28;20053;-73
2022/05/06 04:01:57;;;;;;;36.17;4.43;;;;;;;7.88;33.29;100380.13;5113441;28;20051;-70
2022/05/06 04:04:29;;;;;;;16.88;3.92;;;;;;;7.94;32.66;100369.09;5114622;28;20058;-73
2022/05/06 04:07:00;;;;;;;15.13;4.60;;;;;;;8.11;32.74;100384.66;5113115;28;20181;-72
2022/05/06 04:09:27;;;;;;;18.92;4.22;;;;;;;8.23;32.62;100387.31;5111314;28;20627;-72
2022/05/06 04:11:56;;;;;;;13.73;3.55;;;;;;;8.29;33.03;100380.91;5077398;28;20054;-72
2022/05/06 04:14:22;;;;;;;13.27;3.92;;;;;;;8.42;32.80;100392.53;5086673;28;20059;-73
2022/05/06 04:16:50;;;;;;;;;;;;;;;8.43;33.01;100384.13;5097937;28;20418;-71
2022/05/06 04:19:32;;;;;;;11.60;4.20;;;;;;;8.41;33.16;100394.47;5090247;28;20132;-71
2022/05/06 04:24:56;;;;;;;17.60;4.20;;;;;;;8.52;33.51;100381.84;5105599;28;20047;-71
2022/05/06 04:27:31;;;;;;;13.85;4.10;;;;;;;8.55;33.68;100375.91;5112036;27;20485;-72
2022/05/06 04:30:05;;;;;;;14.02;4.68;;;;;;;8.71;33.63;100389.78;5121878;28;20091;-72
2022/05/06 04:32:44;;;;;;;22.65;4.30;;;;;;;8.65;33.98;100391.59;5075388;28;20059;-73
2022/05/06 04:35:19;;;;;;;18.08;5.38;;;;;;;8.77;33.84;100384.16;5092976;28;20047;-72
2022/05/06 04:37:46;;;;;;;16.58;4.30;;;;;;;8.86;33.91;100389.22;5093748;28;20051;-73
2022/05/06 04:40:13;;;;;;;15.85;3.90;;;;;;;8.92;33.81;100393.66;5103405;28;20496;-70
2022/05/06 04:42:39;;;;;;;17.10;3.88;;;;;;;8.87;33.54;100386.22;5111394;28;20055;-72
2022/05/06 04:45:07;;;;;;;20.92;4.28;;;;;;;8.95;33.82;100384.97;5079028;28;20045;-71
2022/05/06 04:47:38;;;;;;;16.23;4.00;;;;;;;9.03;33.85;100390.03;5084834;28;20066;-71
2022/05/06 04:50:06;;;;;;;17.90;3.80;;;;;;;9.13;33.71;100389.34;5111000;28;20400;-70
2022/05/06 04:52:33;;;;;;;12.95;3.60;;;;;;;9.24;34.02;100386.78;5108601;28;20305;-72
2022/05/06 04:55:00;;;;;;;15.80;3.88;;;;;;;9.32;33.88;100391.78;5131334;28;20414;-72
2022/05/06 04:57:26;;;;;;;26.55;4.43;;;;;;;9.39;33.68;100410.72;5114495;28;20518;-74
2022/05/06 04:59:52;;;;;;;11.55;3.42;;;;;;;9.40;33.24;100394.09;5066089;28;20044;-73
2022/05/06 05:02:20;;;;;;;13.27;3.75;;;;;;;9.57;33.31;100393.22;5112417;28;20043;-70
2022/05/06 05:04:52;;;;;;;9.70;3.63;;;;;;;9.63;32.97;100387.56;5108716;28;20046;-71
2022/05/06 05:07:19;;;;;;;11.00;3.40;;;;;;;9.74;32.78;100393.13;5092773;28;20047;-72
2022/05/06 05:09:53;;;;;;;11.55;3.50;;;;;;;9.87;32.90;100384.53;5102482;28;20051;-73
2022/05/06 05:12:24;;;;;;;11.50;3.30;;;;;;;9.86;32.66;100382.91;5105171;28;20399;-70
2022/05/06 05:14:52;;;;;;;14.93;4.10;;;;;;;10.07;32.33;100392.16;5106580;28;20047;-73
2022/05/06 05:17:22;;;;;;;15.05;3.17;;;;;;;10.06;32.44;100389.66;5093050;28;20100;-74
2022/05/06 05:19:49;;;;;;;25.98;3.75;;;;;;;10.21;32.27;100381.63;5113371;28;20135;-74
2022/05/06 05:22:18;;;;;;;12.23;2.90;;;;;;;10.28;31.19;100395.09;5079775;28;20073;-75
2022/05/06 05:24:46;;;;;;;16.42;3.83;;;;;;;10.28;31.51;100380.59;5099505;28;20047;-73
2022/05/06 05:27:14;;;;;;;11.48;3.17;;;;;;;10.46;31.27;100383.00;5068494;28;20049;-75
2022/05/06 05:29:41;;;;;;;11.98;3.28;;;;;;;10.48;30.99;100389.03;5059345;28;20105;-73
2022/05/06 05:32:08;;;;;;;8.18;2.83;;;;;;;10.58;30.90;100401.16;5104234;28;20070;-72
2022/05/06 05:34:40;;;;;;;10.93;3.20;;;;;;;10.59;30.44;100389.94;5091705;28;20050;-73
2022/05/06 05:37:07;;;;;;;12.80;3.00;;;;;;;10.55;30.27;100393.47;5111084;28;20396;-73
2022/05/06 05:39:34;;;;;;;10.65;2.90;;;;;;;10.60;30.34;100396.22;5094282;28;20051;-74
2022/05/06 05:42:04;;;;;;;14.57;3.42;;;;;;;10.66;30.27;100395.19;5100551;28;20079;-74
2022/05/06 05:50:29;;;;;;;9.63;3.10;;;;;;;10.72;29.41;100410.56;5111398;28;20055;-74
2022/05/06 05:53:06;;;;;;;12.18;2.90;;;;;;;10.74;29.40;100404.81;5100229;28;20130;-73
2022/05/06 05:55:45;;;;;;;9.55;2.92;;;;;;;10.81;29.60;100391.75;5097316;28;20051;-75
2022/05/06 05:58:34;;;;;;;11.82;3.00;;;;;;;10.86;29.50;100390.97;5079754;28;20054;-73
2022/05/06 06:01:05;;;;;;;9.20;2.85;;;;;;;10.96;29.53;100410.19;5091633;28;20096;-73
2022/05/06 06:04:03;;;;;;;12.75;3.38;;;;;;;11.01;29.40;100410.25;5111900;27;20061;-73
2022/05/06 06:06:29;;;;;;;11.52;3.63;;;;;;;11.04;29.46;100412.44;5109908;28;20052;-73
2022/05/06 06:08:56;;;;;;;11.87;3.47;;;;;;;10.99;29.05;100406.91;5105716;28;20062;-74
2022/05/06 06:15:40;;;;;;;9.13;3.22;;;;;;;11.15;29.04;100412.50;4990355;28;20086;-73
2022/05/06 06:18:11;;;;;;;8.60;3.33;;;;;;;11.14;29.02;100408.13;5021492;28;20102;-72
2022/05/06 06:20:47;;;;;;;11.07;3.13;;;;;;;11.15;28.45;100396.06;5021217;28;20049;-74
2022/05/06 06:23:13;;;;;;;17.25;3.70;;;;;;;11.24;28.72;100415.56;5020525;28;20072;-73
2022/05/06 06:25:40;;;;;;;13.45;3.47;;;;;;;11.23;28.73;100413.91;5071116;28;20057;-74
2022/05/06 06:28:07;;;;;;;11.55;3.72;;;;;;;11.30;28.71;100400.84;5109269;28;20043;-72
2022/05/06 06:30:33;;;;;;;11.27;3.97;;;;;;;11.34;28.49;100408.25;5123036;28;20083;-74
2022/05/06 06:33:04;;;;;;;12.65;3.58;;;;;;;11.35;28.52;100400.84;5098041;28;20047;-72
2022/05/06 06:35:31;;;;;;;11.45;3.53;;;;;;;11.50;28.63;100408.34;5110418;28;20137;-73
2022/05/06 06:38:00;;;;;;;9.70;3.75;;;;;;;11.62;28.57;100408.13;5076084;28;20136;-73
2022/05/06 06:40:30;;;;;;;10.95;3.90;;;;;;;11.63;28.50;100409.75;5106019;28;20138;-71
2022/05/06 06:43:02;;;;;;;9.63;3.60;;;;;;;11.70;28.37;100412.25;5092300;28;20047;-75
2022/05/06 06:45:50;;;;;;;13.90;3.67;;;;;;;11.70;28.36;100388.41;5130880;28;20075;-71
2022/05/06 06:48:22;;;;;;;16.35;3.60;;;;;;;11.84;28.81;100396.97;5119443;28;20046;-71
2022/05/06 06:51:00;;;;;;;19.38;3.58;;;;;;;11.96;28.67;100398.66;5109591;28;20125;-70
2022/05/06 06:53:30;;;;;;;11.73;3.70;;;;;;;11.86;28.65;100394.78;5095415;28;20039;-70
2022/05/06 06:55:57;;;;;;;12.00;3.55;;;;;;;12.01;28.43;100401.41;5122505;28;20146;-69
2022/05/06 06:58:25;;;;;;;11.07;3.45;;;;;;;12.08;28.20;100407.47;5124669;28;20103;-71
2022/05/06 07:00:51;;;;;;;;;;;;;;;12.12;28.08;100411.34;5123713;28;20040;-69
2022/05/06 07:03:19;;;;;;;17.88;4.00;;;;;;;12.14;28.27;100391.88;5095848;28;20371;-73
2022/05/06 07:14:02;;;;;;;11.98;3.45;;;;;;;12.55;27.76;100391.94;5115246;28;20622;-70
2022/05/06 07:16:29;;;;;;;17.17;4.20;;;;;;;12.54;27.05;100392.19;5125997;27;20047;-70
2022/05/06 07:18:55;;;;;;;19.25;3.30;;;;;;;12.64;26.63;100397.69;5123654;27;20035;-68
2022/05/06 07:21:21;;;;;;;11.02;3.20;;;;;;;12.70;26.38;100393.03;5127814;28;20046;-69
2022/05/06 07:23:48;;;;;;;23.75;3.47;;;;;;;12.82;26.37;100384.50;5111302;28;20039;-70
2022/05/06 07:26:18;;;;;;;14.30;3.60;;;;;;;12.81;26.33;100383.72;5117294;28;20043;-71
2022/05/06 07:28:45;;;;;;;10.93;3.30;;;;;;;12.84;25.76;100385.91;5100311;28;20051;-72
2022/05/06 07:31:13;;;;;;;11.95;2.92;;;;;;;12.83;26.20;100381.50;5098948;28;20054;-71
2022/05/06 07:33:41;;;;;;;8.93;3.08;;;;;;;12.93;25.88;100377.09;5126265;28;20048;-70
2022/05/06 07:36:08;;;;;;;11.35;3.60;;;;;;;12.97;25.62;100379.00;5114512;28;20051;-72
2022/05/06 07:38:34;;;;;;;8.30;3.05;;;;;;;13.03;25.91;100380.66;5129093;27;20081;-75
2022/05/06 07:41:03;;;;;;;10.65;3.50;;;;;;;12.91;25.76;100360.91;5132527;28;20395;-71
2022/05/06 07:43:30;;;;;;;14.27;3.80;;;;;;;13.06;25.59;100373.78;5094656;28;20071;-74
2022/05/06 07:45:59;;;;;;;10.43;3.78;;;;;;;13.03;25.60;100366.09;5097234;28;20047;-72
2022/05/06 07:48:25;;;;;;;14.05;3.78;;;;;;;13.09;25.65;100370.47;5131324;28;20039;-72
2022/05/06 07:50:51;;;;;;;12.20;3.90;;;;;;;13.10;25.30;100363.06;5132886;28;20503;-72
2022/05/06 07:53:22;;;;;;;10.25;3.75;;;;;;;13.19;25.18;100356.72;5097694;27;20075;-73
2022/05/06 07:55:51;;;;;;;9.55;4.05;;;;;;;13.20;24.72;100379.53;5107232;28;20420;-73
2022/05/06 07:58:19;;;;;;;9.10;3.53;;;;;;;13.30;24.81;100368.50;5123022;28;20047;-73
2022/05/06 08:00:52;;;;;;;10.73;4.32;;;;;;;13.31;24.77;100380.31;5102296;28;20052;-74
2022/05/06 08:06:08;;;;;;;12.90;4.50;;;;;;;13.45;24.46;100359.44;5124819;28;20051;-76
2022/05/06 08:09:13;;;;;;;12.95;4.68;;;;;;;13.49;24.53;100359.66;5123761;28;20050;-75
2022/05/06 08:12:09;;;;;;;13.45;4.30;;;;;;;13.58;24.34;100355.25;5130765;28;20430;-74
2022/05/06 08:14:46;;;;;;;;;;;;;;;;;;;;;
2022/05/06 08:21:08;;;;;;;10.15;3.75;;;;;;;13.07;23.51;100292.25;5013630;28;20143;-72
2022/05/06 08:29:34;;;;;;;19.33;4.07;;;;;;;13.75;23.51;100349.41;5386748;23;20067;-73
2022/05/06 08:35:49;;;;;;;10.77;4.25;;;;;;;13.79;23.04;100313.13;4929567;29;20056;-75
2022/05/06 08:38:17;;;;;;;13.70;4.72;;;;;;;14.02;22.98;100336.34;4931900;29;20048;-72
2022/05/06 08:55:31;;;;;;;10.30;4.28;;;;;;;14.41;22.14;100329.97;4926388;29;20110;-72
2022/05/06 08:58:25;;;;;;;12.25;4.18;;;;;;;14.46;22.26;100332.72;4930355;29;20147;-73
2022/05/06 09:05:16;;;;;;;11.73;4.70;;;;;;;14.56;22.49;100337.31;4905885;29;20090;-73
2022/05/06 09:07:56;;;;;;;12.32;4.25;;;;;;;14.59;22.09;100333.13;4948337;28;20059;-73
2022/05/06 09:10:33;;;;;;;11.55;4.15;;;;;;;14.59;22.15;100341.38;4947822;28;20070;-71
2022/05/06 09:13:02;;;;;;;15.50;4.43;;;;;;;14.56;21.96;100330.97;4954554;28;20047;-73
2022/05/06 09:18:18;;;;;;;16.40;4.00;;;;;;;14.91;21.99;100350.22;4951748;29;20142;-73
2022/05/06 09:20:46;;;;;;;14.05;3.95;;;;;;;14.82;22.05;100347.28;4923279;29;20043;-72
2022/05/06 09:23:24;;;;;;;9.20;3.70;;;;;;;14.71;21.44;100327.28;4932953;29;20134;-72
2022/05/06 09:25:52;;;;;;;12.43;4.18;;;;;;;14.78;21.07;100352.53;4949790;29;20555;-72
2022/05/06 09:28:23;;;;;;;13.05;3.70;;;;;;;14.67;21.21;100337.19;4946061;29;20051;-72
2022/05/06 09:31:00;;;;;;;21.83;4.13;;;;;;;14.95;21.46;100334.75;4949098;29;20055;-72
2022/05/06 09:33:28;;;;;;;10.90;3.30;;;;;;;15.07;21.51;100326.91;4950127;29;20055;-72
2022/05/06 09:35:55;;;;;;;11.55;3.97;;;;;;;15.25;21.41;100343.78;4949442;28;20134;-71
2022/05/06 09:38:22;;;;;;;12.05;3.85;;;;;;;15.19;21.49;100332.00;4948125;28;20058;-70
2022/05/06 09:40:48;;;;;;;10.45;3.70;;;;;;;15.22;21.49;100325.94;4950385;28;20051;-71
2022/05/06 09:44:08;;;;;;;10.32;4.15;;;;;;;15.19;21.44;100325.69;4952524;29;20090;-70
2022/05/06 09:47:25;;;;;;;9.57;3.70;;;;;;;15.05;21.91;100290.59;4899695;29;21139;-78
2022/05/06 09:49:53;;;;;;;13.43;4.53;;;;;;;15.00;21.81;100247.41;4838236;29;20053;-76
2022/05/06 09:52:26;;;;;;;11.48;4.22;;;;;;;15.71;21.80;100309.34;4830361;29;20049;-75
2022/05/06 09:55:00;;;;;;;12.73;4.15;;;;;;;15.96;21.62;100296.31;4883211;29;20059;-73
2022/05/06 09:57:41;;;;;;;18.15;4.38;;;;;;;16.16;21.47;100278.63;4909392;29;20052;-72
2022/05/06 10:00:21;;;;;;;13.10;4.07;;;;;;;15.98;21.12;100267.34;4933398;29;20060;-73
2022/05/06 10:11:24;;;;;;;12.02;3.63;;;;;;;15.76;21.56;100286.38;4896497;29;20150;-73
2022/05/06 10:14:36;;;;;;;11.25;3.53;;;;;;;15.61;21.47;100257.94;4910263;29;20098;-75
2022/05/06 10:17:15;;;;;;;14.48;3.47;;;;;;;15.85;21.57;100260.63;4919360;29;20552;-75
2022/05/06 10:20:45;;;;;;;13.88;3.92;;;;;;;15.72;21.29;100277.91;4925554;29;20071;-75
2022/05/06 10:24:05;;;;;;;8.13;3.17;;;;;;;15.49;20.97;100252.03;4947975;29;20047;-74
2022/05/06 10:33:16;;;;;;;10.30;3.22;;;;;;;15.58;21.47;100284.16;4949478;29;20141;-74
2022/05/06 10:35:44;;;;;;;9.75;3.30;;;;;;;15.56;21.02;100289.13;4932666;29;20047;-74
2022/05/06 10:38:24;;;;;;;9.68;3.22;;;;;;;15.55;20.97;100295.78;4954596;28;20101;-74
2022/05/06 10:45:33;;;;;;;8.52;2.90;;;;;;;15.62;21.10;100281.63;4909642;28;20079;-74
2022/05/06 10:49:14;;;;;;;10.25;3.17;;;;;;;15.49;21.31;100271.34;4927085;29;20134;-74
2022/05/06 10:51:42;;;;;;;10.45;2.80;;;;;;;15.67;20.74;100281.53;4950516;28;20047;-73
2022/05/06 10:54:14;;;;;;;10.10;2.60;;;;;;;15.86;21.00;100280.72;4949201;29;20420;-71
2022/05/06 10:56:44;;;;;;;8.07;2.92;;;;;;;16.14;20.91;100278.13;4952005;29;20133;-70
2022/05/06 10:59:10;;;;;;;17.45;3.13;;;;;;;16.35;20.51;100297.09;4952572;28;20404;-72
2022/05/06 11:01:37;;;;;;;9.48;2.80;;;;;;;16.33;20.33;100272.56;4950378;28;20063;-73
2022/05/06 11:04:03;;;;;;;17.60;3.33;;;;;;;16.48;20.49;100270.66;4952321;28;20143;-72
2022/05/06 11:06:29;;;;;;;8.85;3.00;;;;;;;16.40;20.67;100266.66;4948520;28;20043;-71
2022/05/06 11:08:55;;;;;;;7.82;3.08;;;;;;;16.34;20.65;100267.84;4954074;28;20051;-71
2022/05/06 11:11:23;;;;;;;10.40;3.38;;;;;;;16.21;20.52;100270.25;4949472;28;20230;-72
2022/05/06 11:13:51;;;;;;;15.95;3.13;;;;;;;16.11;20.51;100262.19;4937223;29;20212;-72
2022/05/06 11:16:17;;;;;;;10.70;3.00;;;;;;;16.20;20.44;100254.03;4940270;29;20077;-72
2022/05/06 11:18:44;;;;;;;11.70;3.33;;;;;;;16.52;20.46;100271.69;4947404;29;20050;-73
2022/05/06 11:21:21;;;;;;;9.25;3.00;;;;;;;16.81;20.63;100254.03;4937682;28;20134;-74
2022/05/06 11:23:47;;;;;;;12.05;3.58;;;;;;;17.18;20.34;100256.94;4963498;28;20051;-73
2022/05/06 11:26:23;;;;;;;10.00;4.20;;;;;;;17.48;19.65;100280.31;4952654;28;20420;-72
2022/05/06 11:29:00;;;;;;;15.18;3.63;;;;;;;17.60;19.35;100259.63;4936312;28;20411;-72
2022/05/06 11:31:28;;;;;;;9.00;3.70;;;;;;;17.67;19.97;100266.38;4935516;29;20067;-73
2022/05/06 11:33:56;;;;;;;15.90;4.13;;;;;;;17.83;19.69;100255.75;4952757;28;20051;-71
2022/05/06 11:36:23;;;;;;;14.45;3.97;;;;;;;17.93;19.59;100235.31;4953100;28;20042;-73
2022/05/06 11:38:48;;;;;;;11.80;3.75;;;;;;;18.35;19.56;100243.47;4951440;28;20489;-74
2022/05/06 11:41:17;;;;;;;13.05;3.83;;;;;;;18.67;19.52;100235.13;4950653;29;20046;-74
2022/05/06 11:43:46;;;;;;;12.90;4.15;;;;;;;19.08;19.33;100245.09;4952214;28;20054;-72
2022/05/06 11:49:00;;;;;;;12.38;4.05;;;;;;;19.77;18.64;100233.59;4952906;29;20043;-71
2022/05/06 11:51:30;;;;;;;13.07;4.45;;;;;;;19.92;18.32;100238.69;4946769;29;20051;-73
2022/05/06 11:53:58;;;;;;;16.27;4.40;;;;;;;20.22;18.33;100232.47;4948620;28;20055;-75
2022/05/06 11:56:51;;;;;;;19.42;4.50;;;;;;;20.42;17.82;100203.16;4950780;28;20049;-75
2022/05/06 11:59:20;;;;;;;15.05;4.57;;;;;;;20.90;17.44;100244.81;4943488;29;20110;-73
2022/05/06 12:06:04;;;;;;;14.68;4.20;;;;;;;19.76;17.89;100223.66;4889086;29;20064;-72
2022/05/06 12:08:36;;;;;;;11.02;4.15;;;;;;;19.46;17.58;100235.41;4913547;29;20047;-73
2022/05/06 12:11:08;;;;;;;9.52;4.30;;;;;;;19.20;17.94;100227.00;4952194;29;20055;-74
2022/05/06 12:13:42;;;;;;;12.23;4.85;;;;;;;19.52;18.11;100214.69;4952752;29;20141;-77
2022/05/06 12:16:58;;;;;;;12.10;4.43;;;;;;;19.62;18.11;100146.97;4946314;29;20135;-77
2022/05/06 12:19:48;;;;;;;15.80;4.10;;;;;;;20.18;17.67;100229.53;4952553;28;20098;-74
2022/05/06 12:22:20;;;;;;;9.40;4.35;;;;;;;19.94;17.13;100216.97;4953669;28;20069;-74
2022/05/06 12:28:18;;;;;;;10.23;3.90;;;;;;;20.08;17.32;100193.78;4955026;28;20106;-74
2022/05/06 12:31:34;;;;;;;10.88;4.20;;;;;;;19.70;17.73;100203.59;4950043;29;20082;-76
2022/05/06 12:34:41;;;;;;;11.68;4.20;;;;;;;19.81;17.52;100206.84;4943289;29;20051;-76
2022/05/06 12:37:29;;;;;;;14.85;4.40;;;;;;;19.34;17.03;100127.91;4944698;29;20576;-76
2022/05/06 12:51:54;;;;;;;19.70;5.78;;;;;;;21.41;17.13;100172.53;4947878;28;20186;-74
2022/05/06 12:54:22;;;;;;;15.10;4.43;;;;;;;21.70;16.94;100175.59;4932706;29;20083;-74
2022/05/06 12:56:48;;;;;;;13.63;4.68;;;;;;;21.87;16.66;100169.06;4935436;29;20048;-75
2022/05/06 12:59:16;;;;;;;11.13;3.75;;;;;;;21.90;16.39;100160.84;4931985;29;20058;-73
2022/05/06 13:01:43;;;;;;;11.98;4.50;;;;;;;21.98;16.47;100175.84;4930326;28;20141;-74
2022/05/06 13:04:09;;;;;;;10.15;4.55;;;;;;;21.40;15.78;100204.28;4916246;29;20768;-74
2022/05/06 13:06:36;;;;;;;14.27;4.50;;;;;;;20.76;16.20;100186.69;4931422;29;20158;-74
2022/05/06 13:09:03;;;;;;;8.77;3.65;;;;;;;20.54;16.01;100181.06;4948367;29;20055;-74
2022/05/06 13:11:29;;;;;;;11.45;4.32;;;;;;;20.37;16.27;100190.28;4942217;29;20146;-74
2022/05/06 13:13:55;;;;;;;17.13;5.00;;;;;;;20.20;16.51;100173.66;4951552;28;20055;-73
2022/05/06 13:16:22;;;;;;;9.40;3.63;;;;;;;20.10;16.65;100172.06;4950345;29;20043;-73
2022/05/06 13:18:50;;;;;;;13.18;4.10;;;;;;;19.83;16.80;100185.16;4933693;28;20085;-72
2022/05/06 13:21:16;;;;;;;9.60;3.60;;;;;;;19.63;17.17;100192.19;4947415;28;20051;-73
2022/05/06 13:23:43;;;;;;;14.23;4.30;;;;;;;19.72;16.45;100156.13;4941765;29;20055;-73
2022/05/06 13:26:10;;;;;;;14.95;3.70;;;;;;;19.28;17.03;100137.53;4947955;29;20043;-72
2022/05/06 13:28:36;;;;;;;14.52;4.20;;;;;;;19.81;16.83;100168.81;4944402;28;20424;-67
2022/05/06 13:31:02;;;;;;;14.63;3.80;;;;;;;20.06;16.92;100165.53;4949056;29;20513;-69
2022/05/06 13:33:29;;;;;;;9.50;3.80;;;;;;;20.15;16.94;100159.97;4950014;28;20071;-69